Nashotah, WI

6:29 PM CDT on September 26, 2016 (GMT -0500)
| | Change Station

Elev -9999 ft 0.00 °N, 0.00 °E | Updated

Clear
Clear
56 °F
Feels Like 56 °F
N
10
Wind Variable Wind from West
Gusts 17 mph

Today
High -- | Low -- °F
--% Chance of Precip.
Yesterday
High -- | Low -- °F
Precip. -- in
Pressure 29.88 in
Visibility 10.0 miles
Clouds Mostly Cloudy 9000 ft
Dew Point 40 °F
Humidity 53%
Rainfall --
Snow Depth Not available.
6:45 AM 6:42 PM
Waning Crescent, 15% visible
METAR KUES 262245Z 26010G22KT 10SM BKN090 16/01 A2988
Pressure 29.88 in
Visibility 10.0 miles
Clouds Mostly Cloudy 9000 ft
Dew Point 40 °F
Humidity 53%
Rainfall --
Snow Depth Not available.
6:45 AM 6:42 PM
Waning Crescent, 15% visible
METAR KUES 262245Z 26010G22KT 10SM BKN090 16/01 A2988

10-Day Weather Forecast

Almanac

Astronomy

Sep. 26, 2016 Rise Set
Actual Time
Civil Twilight
Nautical Twilight
Astronomical Twilight
Moon
Length of Visible Light
Length of Day
Tomorrow will be .
, % of the Moon is Illuminated

Today's Extremes

State Highs State Lows

Community

WunderPhotos

Upload Photos

1,941,987 photos uploaded!

WunderBlog® & News

Nearby

Air Quality

  Air Quality AQ Index Pollutant
Not available.

Snow Depth

Station Depth Elevation

Earthquake Activity

City Distance Mag. Time & Date
Minimum magnitude displayed is 2.5.

Coastal Water Temperatures

Place Temperature

Stations

Nearby Weather Stations

Station Location Temp. Windchill Dew Point Humidity Wind Precip. Elev Updated Type
                   

Watches & Warnings

There are currently no watches in effect.